Time;durP1;ratioP1;P1;durP2;ratioP2;P2;SDS_P1;SDS_P2;PMS_P1;PMS_P2;Temp;Humidity;BMP_temperature;BMP_pressure;BME280_temperature;BME280_humidity;BME280_pressure;Samples;Min_cycle;Max_cycle;Signal;HPM_P1;HPM_P2
2022/09/30 00:01:49;;;;;;;;;;;10.60;99.90;;;;;;4976637;28;19930;-78
2022/09/30 00:04:17;;;;;;;;;;;10.50;99.90;;;;;;4981745;28;19926;-77
2022/09/30 00:06:45;;;;;;;;;;;10.50;99.90;;;;;;4996520;28;19957;-78
2022/09/30 00:09:12;;;;;;;;;;;10.50;99.90;;;;;;4977938;28;19969;-78
2022/09/30 00:11:39;;;;;;;;;;;10.50;99.90;;;;;;4973169;28;19934;-79
2022/09/30 00:14:07;;;;;;;;;;;10.60;99.90;;;;;;4980055;28;20020;-78
2022/09/30 00:16:36;;;;;;;;;;;10.50;99.90;;;;;;4973527;28;20356;-78
2022/09/30 00:19:04;;;;;;;;;;;10.50;99.90;;;;;;4977123;28;19926;-78
2022/09/30 00:21:32;;;;;;;;;;;10.40;99.90;;;;;;4975216;28;20000;-78
2022/09/30 00:24:01;;;;;;;;;;;10.50;99.90;;;;;;4981069;28;20021;-78
2022/09/30 00:26:28;;;;;;;;;;;10.50;99.90;;;;;;4978305;28;19968;-78
2022/09/30 00:28:56;;;;;;;;;;;10.50;99.90;;;;;;4978066;28;20400;-78
2022/09/30 00:31:23;;;;;;;;;;;10.40;99.90;;;;;;4973317;28;20037;-78
2022/09/30 00:36:31;;;;;;;;;;;10.50;99.90;;;;;;4978976;28;19921;-78
2022/09/30 00:38:58;;;;;;;;;;;10.40;99.90;;;;;;4975516;28;19948;-78
2022/09/30 00:41:26;;;;;;;;;;;10.40;99.90;;;;;;4971326;28;19930;-78
2022/09/30 00:43:53;;;;;;;;;;;10.50;99.90;;;;;;4974824;28;20037;-78
2022/09/30 00:46:21;;;;;;;;;;;10.40;99.90;;;;;;4990513;28;20462;-78
2022/09/30 00:48:52;;;;;;;;;;;10.40;99.90;;;;;;4975853;28;19983;-78
2022/09/30 00:51:24;;;;;;;;;;;10.50;99.90;;;;;;4975103;28;19972;-78
2022/09/30 00:53:52;;;;;;;;;;;10.50;99.90;;;;;;4979262;28;19926;-77
2022/09/30 00:56:21;;;;;;;;;;;10.50;99.90;;;;;;4976117;28;20247;-78
2022/09/30 00:58:52;;;;;;;;;;;10.50;99.90;;;;;;4980297;28;19926;-78
2022/09/30 01:01:19;;;;;;;;;;;10.50;99.90;;;;;;4977659;28;20460;-78
2022/09/30 01:03:48;;;;;;;;;;;10.50;99.90;;;;;;4976499;28;20199;-78
2022/09/30 01:06:16;;;;;;;;;;;10.50;99.90;;;;;;4980301;28;19926;-78
2022/09/30 01:08:43;;;;;;;;;;;10.40;99.90;;;;;;4980170;28;20274;-78
2022/09/30 01:11:10;;;;;;;;;;;10.40;99.90;;;;;;4977616;28;19932;-79
2022/09/30 01:13:38;;;;;;;;;;;10.40;99.90;;;;;;4973048;28;19926;-77
2022/09/30 01:16:13;;;;;;;;;;;10.40;99.90;;;;;;4976766;28;20393;-78
2022/09/30 01:18:47;;;;;;;;;;;10.30;99.90;;;;;;4981301;28;20366;-78
2022/09/30 01:21:20;;;;;;;;;;;10.30;99.90;;;;;;4969409;28;20416;-78
2022/09/30 01:23:55;;;;;;;;;;;10.40;99.90;;;;;;4990837;28;20021;-78
2022/09/30 01:26:37;;;;;;;;;;;10.30;99.90;;;;;;4972905;28;19934;-78
2022/09/30 01:29:12;;;;;;;;;;;10.40;99.90;;;;;;4981854;28;20009;-78
2022/09/30 01:31:47;;;;;;;;;;;10.30;99.90;;;;;;4970132;28;20520;-78
2022/09/30 01:34:16;;;;;;;;;;;10.30;99.90;;;;;;4974073;28;19926;-78
2022/09/30 01:36:54;;;;;;;;;;;10.30;99.90;;;;;;4972995;28;20417;-78
2022/09/30 01:39:28;;;;;;;;;;;10.30;99.90;;;;;;4978079;28;19953;-78
2022/09/30 01:41:58;;;;;;;;;;;10.30;99.90;;;;;;4977544;28;21105;-78
2022/09/30 01:44:31;;;;;;;;;;;10.30;99.90;;;;;;4974938;28;20085;-79
2022/09/30 01:47:01;;;;;;;;;;;10.30;99.90;;;;;;4998412;28;19937;-78
2022/09/30 01:49:34;;;;;;;;;;;10.30;99.90;;;;;;4977541;28;19964;-77
2022/09/30 01:52:04;;;;;;;;;;;10.30;99.90;;;;;;4993393;28;19926;-78
2022/09/30 01:54:33;;;;;;;;;;;10.30;99.90;;;;;;4995209;28;19940;-78
2022/09/30 01:57:02;;;;;;;;;;;10.30;99.90;;;;;;4983915;28;19961;-78
2022/09/30 01:59:32;;;;;;;;;;;10.20;99.90;;;;;;4980034;28;20132;-77
2022/09/30 02:02:04;;;;;;;;;;;10.20;99.90;;;;;;4978444;28;19965;-78
2022/09/30 02:04:33;;;;;;;;;;;10.20;99.90;;;;;;4982925;28;20028;-78
2022/09/30 02:07:01;;;;;;;;;;;10.20;99.90;;;;;;4978606;28;19965;-78
2022/09/30 02:09:31;;;;;;;;;;;10.20;99.90;;;;;;4982554;28;20013;-78
2022/09/30 02:11:59;;;;;;;;;;;10.20;99.90;;;;;;4983412;28;19969;-78
2022/09/30 02:14:27;;;;;;;;;;;10.20;99.90;;;;;;4975747;28;19930;-77
2022/09/30 02:16:58;;;;;;;;;;;10.20;99.90;;;;;;4982440;28;20305;-78
2022/09/30 02:19:30;;;;;;;;;;;10.20;99.90;;;;;;4979292;28;20393;-78
2022/09/30 02:21:58;;;;;;;;;;;10.20;99.90;;;;;;4980155;28;20292;-77
2022/09/30 02:24:27;;;;;;;;;;;10.20;99.90;;;;;;4978067;28;20332;-78
2022/09/30 02:26:56;;;;;;;;;;;10.20;99.90;;;;;;4976300;28;20417;-78
2022/09/30 02:29:26;;;;;;;;;;;10.20;99.90;;;;;;4980304;28;20368;-78
2022/09/30 02:31:55;;;;;;;;;;;10.20;99.90;;;;;;4974321;28;20396;-78
2022/09/30 02:34:24;;;;;;;;;;;10.20;99.90;;;;;;4995682;28;19925;-78
2022/09/30 02:36:54;;;;;;;;;;;10.20;99.90;;;;;;4985551;28;19933;-78
2022/09/30 02:39:25;;;;;;;;;;;10.10;99.90;;;;;;4979160;28;19964;-78
2022/09/30 02:41:53;;;;;;;;;;;10.10;99.90;;;;;;4998724;28;19984;-78
2022/09/30 02:44:21;;;;;;;;;;;10.10;99.90;;;;;;4983444;28;19933;-78
2022/09/30 02:46:53;;;;;;;;;;;10.10;99.90;;;;;;4977281;28;19995;-78
2022/09/30 02:49:24;;;;;;;;;;;10.10;99.90;;;;;;4976768;28;19930;-77
2022/09/30 02:52:01;;;;;;;;;;;10.10;99.90;;;;;;4976331;28;19977;-78
2022/09/30 02:54:31;;;;;;;;;;;10.10;99.90;;;;;;4972594;28;19965;-78
2022/09/30 02:57:00;;;;;;;;;;;10.10;99.90;;;;;;4983618;28;19925;-78
2022/09/30 02:59:27;;;;;;;;;;;10.10;99.90;;;;;;4983677;28;20024;-80
2022/09/30 03:01:54;;;;;;;;;;;10.10;99.90;;;;;;4979354;28;20005;-78
2022/09/30 03:04:22;;;;;;;;;;;10.10;99.90;;;;;;4979153;28;19933;-78
2022/09/30 03:06:48;;;;;;;;;;;10.10;99.90;;;;;;4981552;28;20009;-78
2022/09/30 03:09:17;;;;;;;;;;;10.10;99.90;;;;;;4973570;28;19933;-78
2022/09/30 03:11:43;;;;;;;;;;;10.00;99.90;;;;;;4979187;28;20006;-78
2022/09/30 03:14:27;;;;;;;;;;;10.00;99.90;;;;;;4978536;28;20082;-78
2022/09/30 03:17:05;;;;;;;;;;;10.00;99.90;;;;;;4978155;28;19930;-78
2022/09/30 03:19:41;;;;;;;;;;;10.10;99.90;;;;;;4976504;28;20036;-77
2022/09/30 03:22:19;;;;;;;;;;;10.00;99.90;;;;;;4975848;28;19981;-78
2022/09/30 03:24:54;;;;;;;;;;;10.00;99.90;;;;;;4979518;28;19930;-78
2022/09/30 03:27:24;;;;;;;;;;;10.00;99.90;;;;;;4980115;28;20428;-78
2022/09/30 03:29:56;;;;;;;;;;;10.00;99.90;;;;;;4978516;28;19985;-78
2022/09/30 03:32:30;;;;;;;;;;;10.00;99.90;;;;;;5147705;23;19964;-80
2022/09/30 03:35:03;;;;;;;;;;;10.00;99.90;;;;;;5001284;28;19926;-79
2022/09/30 03:37:32;;;;;;;;;;;10.00;99.90;;;;;;5000178;28;20359;-80
2022/09/30 03:40:02;;;;;;;;;;;9.90;99.90;;;;;;5004768;28;19976;-80
2022/09/30 03:42:35;;;;;;;;;;;9.90;99.90;;;;;;4980076;28;19933;-80
2022/09/30 03:45:04;;;;;;;;;;;9.90;99.90;;;;;;4984908;28;20111;-79
2022/09/30 03:47:32;;;;;;;;;;;9.90;99.90;;;;;;4981149;28;20325;-79
2022/09/30 03:50:00;;;;;;;;;;;10.00;99.90;;;;;;4981942;28;19929;-80
2022/09/30 03:52:29;;;;;;;;;;;9.90;99.90;;;;;;4982374;28;19926;-80
2022/09/30 03:54:58;;;;;;;;;;;9.90;99.90;;;;;;4983735;28;19984;-80
2022/09/30 03:57:29;;;;;;;;;;;9.80;99.90;;;;;;4982130;28;19930;-78
2022/09/30 03:59:56;;;;;;;;;;;9.90;99.90;;;;;;4982559;28;19957;-79
2022/09/30 04:02:23;;;;;;;;;;;9.90;99.90;;;;;;4980128;28;19936;-79
2022/09/30 04:04:50;;;;;;;;;;;9.90;99.90;;;;;;4981392;28;20408;-80
2022/09/30 04:07:17;;;;;;;;;;;9.90;99.90;;;;;;4980857;28;19930;-80
2022/09/30 04:09:44;;;;;;;;;;;9.90;99.90;;;;;;4980056;28;19966;-80
2022/09/30 04:12:11;;;;;;;;;;;9.90;99.90;;;;;;4959613;28;20337;-79
2022/09/30 04:14:39;;;;;;;;;;;9.80;99.90;;;;;;4981287;28;20022;-79
2022/09/30 04:17:06;;;;;;;;;;;9.90;99.90;;;;;;4980023;28;19932;-79
2022/09/30 04:19:37;;;;;;;;;;;9.80;99.90;;;;;;4979657;28;19965;-79
2022/09/30 04:22:04;;;;;;;;;;;9.80;99.90;;;;;;4982865;28;19934;-80
2022/09/30 04:24:31;;;;;;;;;;;9.80;99.90;;;;;;4985454;28;20178;-79
2022/09/30 04:26:57;;;;;;;;;;;9.80;99.90;;;;;;4984823;28;19926;-79
2022/09/30 04:29:27;;;;;;;;;;;9.80;99.90;;;;;;4976834;28;20348;-81
2022/09/30 04:31:55;;;;;;;;;;;9.70;99.90;;;;;;4979498;28;20024;-79
2022/09/30 04:34:24;;;;;;;;;;;9.70;99.90;;;;;;4980003;28;19962;-80
2022/09/30 04:36:51;;;;;;;;;;;9.80;99.90;;;;;;4979444;28;19926;-79
2022/09/30 04:39:18;;;;;;;;;;;9.80;99.90;;;;;;4988359;28;19936;-80
2022/09/30 04:41:45;;;;;;;;;;;9.70;99.90;;;;;;4982747;28;19933;-80
2022/09/30 04:44:12;;;;;;;;;;;9.80;99.90;;;;;;4987624;28;19926;-80
2022/09/30 04:46:39;;;;;;;;;;;9.70;99.90;;;;;;4988399;28;19930;-80
2022/09/30 04:49:22;;;;;;;;;;;9.70;99.90;;;;;;4984700;28;19932;-80
2022/09/30 04:52:04;;;;;;;;;;;9.70;99.90;;;;;;4991462;28;19925;-77
2022/09/30 04:54:31;;;;;;;;;;;9.70;99.90;;;;;;4979240;28;19926;-79
2022/09/30 04:56:57;;;;;;;;;;;9.70;99.90;;;;;;4982309;28;20060;-80
2022/09/30 04:59:24;;;;;;;;;;;9.60;99.90;;;;;;4982909;28;19976;-80
2022/09/30 05:01:51;;;;;;;;;;;9.60;99.90;;;;;;4983659;28;20017;-78
2022/09/30 05:04:18;;;;;;;;;;;9.60;99.90;;;;;;4988616;28;19926;-78
2022/09/30 05:06:45;;;;;;;;;;;9.60;99.90;;;;;;4983413;28;19926;-80
2022/09/30 05:09:13;;;;;;;;;;;9.60;99.90;;;;;;4989799;28;19926;-79
2022/09/30 05:11:41;;;;;;;;;;;9.60;99.90;;;;;;4990302;28;20426;-80
2022/09/30 05:14:08;;;;;;;;;;;9.60;99.90;;;;;;4988253;28;20407;-79
2022/09/30 05:16:36;;;;;;;;;;;9.60;99.90;;;;;;4986738;28;20016;-77
2022/09/30 05:19:03;;;;;;;;;;;9.60;99.90;;;;;;4977545;28;19998;-79
2022/09/30 05:21:29;;;;;;;;;;;9.50;99.90;;;;;;4977246;28;19933;-80
2022/09/30 05:23:57;;;;;;;;;;;9.50;99.90;;;;;;4987115;28;21447;-80
2022/09/30 05:26:25;;;;;;;;;;;9.50;99.90;;;;;;4978597;28;19973;-80
2022/09/30 05:28:51;;;;;;;;;;;9.50;99.90;;;;;;4981517;28;20572;-80
2022/09/30 05:31:19;;;;;;;;;;;9.50;99.90;;;;;;4977921;28;19932;-79
2022/09/30 05:33:46;;;;;;;;;;;9.50;99.90;;;;;;4978412;28;19933;-80
2022/09/30 05:36:14;;;;;;;;;;;9.50;99.90;;;;;;4984978;28;20365;-80
2022/09/30 05:38:41;;;;;;;;;;;9.50;99.90;;;;;;4980997;28;19973;-80
2022/09/30 05:41:10;;;;;;;;;;;9.50;99.90;;;;;;4979830;28;19926;-80
2022/09/30 05:43:39;;;;;;;;;;;9.50;99.90;;;;;;4992392;28;19930;-79
2022/09/30 05:46:06;;;;;;;;;;;9.50;99.90;;;;;;4980097;28;19981;-80
2022/09/30 05:48:33;;;;;;;;;;;9.50;99.90;;;;;;4980452;28;19973;-80
2022/09/30 05:51:01;;;;;;;;;;;9.50;99.90;;;;;;4984334;28;19926;-80
2022/09/30 05:53:28;;;;;;;;;;;9.40;99.90;;;;;;4975633;28;20408;-80
2022/09/30 05:55:55;;;;;;;;;;;9.50;99.90;;;;;;4983143;28;19969;-79
2022/09/30 05:58:26;;;;;;;;;;;9.40;99.90;;;;;;4975486;28;19930;-81
2022/09/30 06:00:54;;;;;;;;;;;9.40;99.90;;;;;;4993748;28;19969;-80
2022/09/30 06:03:22;;;;;;;;;;;9.40;99.90;;;;;;4990423;28;20424;-79
2022/09/30 06:05:55;;;;;;;;;;;9.40;99.90;;;;;;4982102;28;19930;-79
2022/09/30 06:08:24;;;;;;;;;;;9.40;99.90;;;;;;4983284;28;20017;-80
2022/09/30 06:10:51;;;;;;;;;;;9.40;99.90;;;;;;4987842;28;19934;-80
2022/09/30 06:13:19;;;;;;;;;;;9.30;99.90;;;;;;4992050;28;20020;-79
2022/09/30 06:15:56;;;;;;;;;;;9.40;99.90;;;;;;4986013;28;19926;-81
2022/09/30 06:18:24;;;;;;;;;;;9.40;99.90;;;;;;4986937;28;19934;-80
2022/09/30 06:20:53;;;;;;;;;;;9.40;99.90;;;;;;4981675;28;19969;-80
2022/09/30 06:23:20;;;;;;;;;;;9.40;99.90;;;;;;4976072;28;19926;-80
2022/09/30 06:25:49;;;;;;;;;;;9.40;99.90;;;;;;4982290;28;19926;-80
2022/09/30 06:28:16;;;;;;;;;;;9.40;99.90;;;;;;4980624;28;19926;-79
2022/09/30 06:30:44;;;;;;;;;;;9.40;99.90;;;;;;4987434;28;19929;-80
2022/09/30 06:33:13;;;;;;;;;;;9.40;99.90;;;;;;4991866;28;20300;-79
2022/09/30 06:35:42;;;;;;;;;;;9.40;99.90;;;;;;4987985;28;19973;-80
2022/09/30 06:38:10;;;;;;;;;;;9.30;99.90;;;;;;4993235;28;20297;-79
2022/09/30 06:40:37;;;;;;;;;;;9.40;99.90;;;;;;4993469;28;19926;-80
2022/09/30 06:43:06;;;;;;;;;;;9.40;99.90;;;;;;4988061;28;19926;-80
2022/09/30 06:45:34;;;;;;;;;;;9.40;99.90;;;;;;4990260;28;19930;-80
2022/09/30 06:48:02;;;;;;;;;;;9.40;99.90;;;;;;4986633;28;19930;-80
2022/09/30 06:50:30;;;;;;;;;;;9.40;99.90;;;;;;4989536;28;19932;-80
2022/09/30 06:52:58;;;;;;;;;;;9.40;99.90;;;;;;4978642;28;20041;-78
2022/09/30 06:55:25;;;;;;;;;;;9.40;99.90;;;;;;4983210;28;20018;-79
2022/09/30 06:57:52;;;;;;;;;;;9.40;99.90;;;;;;4980358;28;20285;-78
2022/09/30 07:00:20;;;;;;;;;;;9.40;99.90;;;;;;4977119;28;19926;-78
2022/09/30 07:02:47;;;;;;;;;;;9.30;99.90;;;;;;4977547;28;19934;-78
2022/09/30 07:05:15;;;;;;;;;;;9.30;99.90;;;;;;4983985;28;21387;-78
2022/09/30 07:07:44;;;;;;;;;;;9.30;99.90;;;;;;5000556;28;20411;-78
2022/09/30 07:10:11;;;;;;;;;;;9.30;99.90;;;;;;4984265;28;19925;-77
2022/09/30 07:12:38;;;;;;;;;;;9.30;99.90;;;;;;4984525;28;20020;-78
2022/09/30 07:15:05;;;;;;;;;;;9.30;99.90;;;;;;4979955;28;20451;-78
2022/09/30 07:17:32;;;;;;;;;;;9.30;99.90;;;;;;4983700;28;20594;-78
2022/09/30 07:19:59;;;;;;;;;;;9.30;99.90;;;;;;4984873;28;19926;-78
2022/09/30 07:22:30;;;;;;;;;;;9.30;99.90;;;;;;4978092;28;19956;-77
2022/09/30 07:24:59;;;;;;;;;;;9.30;99.90;;;;;;4979560;28;19941;-80
2022/09/30 07:27:27;;;;;;;;;;;9.30;99.90;;;;;;4975256;28;20020;-78
2022/09/30 07:29:54;;;;;;;;;;;9.30;99.90;;;;;;4983868;28;20169;-78
2022/09/30 07:32:21;;;;;;;;;;;9.30;99.90;;;;;;4971656;28;19985;-78
2022/09/30 07:34:48;;;;;;;;;;;9.30;99.90;;;;;;4977535;28;19926;-78
2022/09/30 07:37:17;;;;;;;;;;;9.30;99.90;;;;;;4981564;28;19932;-79
2022/09/30 07:39:44;;;;;;;;;;;9.30;99.90;;;;;;4975861;28;20134;-77
2022/09/30 07:42:13;;;;;;;;;;;9.30;99.90;;;;;;4994805;28;19982;-78
2022/09/30 07:44:40;;;;;;;;;;;9.30;99.90;;;;;;4977473;28;20426;-79
2022/09/30 07:47:08;;;;;;;;;;;9.30;99.90;;;;;;4985910;28;19972;-78
2022/09/30 07:49:35;;;;;;;;;;;9.30;99.90;;;;;;4976759;28;19933;-78
2022/09/30 07:52:02;;;;;;;;;;;9.30;99.90;;;;;;4978005;28;19930;-78
2022/09/30 07:54:30;;;;;;;;;;;9.30;99.90;;;;;;4981581;28;20296;-78
2022/09/30 07:56:57;;;;;;;;;;;9.30;99.90;;;;;;4980265;28;20036;-78
2022/09/30 07:59:26;;;;;;;;;;;9.30;99.90;;;;;;4998819;28;19936;-78
2022/09/30 08:01:52;;;;;;;;;;;9.40;99.90;;;;;;4986290;28;19993;-78
2022/09/30 08:04:20;;;;;;;;;;;9.30;99.90;;;;;;4984675;28;19926;-77
2022/09/30 08:06:48;;;;;;;;;;;9.30;99.90;;;;;;4973146;28;20374;-78
2022/09/30 08:09:16;;;;;;;;;;;9.30;99.90;;;;;;4976847;28;19997;-78
2022/09/30 08:11:42;;;;;;;;;;;9.30;99.90;;;;;;4977632;28;19926;-77
2022/09/30 08:14:13;;;;;;;;;;;9.30;99.90;;;;;;4978892;28;20488;-78
2022/09/30 08:16:41;;;;;;;;;;;9.30;99.90;;;;;;4978020;28;19937;-79
2022/09/30 08:19:12;;;;;;;;;;;9.30;99.90;;;;;;4976587;28;19934;-78
2022/09/30 08:21:39;;;;;;;;;;;9.30;99.90;;;;;;4981014;28;19952;-78
2022/09/30 08:24:06;;;;;;;;;;;9.30;99.90;;;;;;4978184;28;20341;-78
2022/09/30 08:26:33;;;;;;;;;;;9.30;99.90;;;;;;4979740;28;19969;-79
2022/09/30 08:29:00;;;;;;;;;;;9.40;99.90;;;;;;4984281;28;19941;-78
2022/09/30 08:31:27;;;;;;;;;;;9.30;99.90;;;;;;4982064;28;19977;-78
2022/09/30 08:33:55;;;;;;;;;;;9.30;99.90;;;;;;4976753;28;19930;-78
2022/09/30 08:36:23;;;;;;;;;;;9.30;99.90;;;;;;4977965;28;19996;-78
2022/09/30 08:38:50;;;;;;;;;;;9.30;99.90;;;;;;4980241;28;19933;-78
2022/09/30 08:41:23;;;;;;;;;;;9.30;99.90;;;;;;4979458;28;19925;-78
2022/09/30 08:43:57;;;;;;;;;;;9.40;99.90;;;;;;4974013;28;19932;-78
2022/09/30 08:46:30;;;;;;;;;;;9.40;99.90;;;;;;4982627;28;19932;-79
2022/09/30 08:49:02;;;;;;;;;;;9.30;99.90;;;;;;4972248;28;19929;-78
2022/09/30 08:51:31;;;;;;;;;;;9.40;99.90;;;;;;4975402;28;20384;-78
2022/09/30 08:54:01;;;;;;;;;;;9.40;99.90;;;;;;4974498;28;19960;-78
2022/09/30 08:56:29;;;;;;;;;;;9.40;99.90;;;;;;4976961;28;19949;-78
2022/09/30 08:58:59;;;;;;;;;;;9.40;99.90;;;;;;4997690;28;19930;-78
2022/09/30 09:01:28;;;;;;;;;;;9.40;99.90;;;;;;4976648;28;19934;-78
2022/09/30 09:03:57;;;;;;;;;;;9.40;99.90;;;;;;4981720;28;19976;-78
2022/09/30 09:06:28;;;;;;;;;;;9.40;99.90;;;;;;4976343;28;20376;-78
2022/09/30 09:09:19;;;;;;;;;;;9.40;99.90;;;;;;4972577;28;20545;-78
2022/09/30 09:11:50;;;;;;;;;;;9.40;99.90;;;;;;4960651;28;20062;-78
2022/09/30 09:14:23;;;;;;;;;;;9.40;99.90;;;;;;4981457;28;20016;-78
2022/09/30 09:16:53;;;;;;;;;;;9.40;99.90;;;;;;4976072;28;19933;-78
2022/09/30 09:19:23;;;;;;;;;;;9.50;99.90;;;;;;4975211;28;20016;-79
2022/09/30 09:21:53;;;;;;;;;;;9.50;99.90;;;;;;4981570;28;19932;-78
2022/09/30 09:24:22;;;;;;;;;;;9.50;99.90;;;;;;4979827;28;19932;-78
2022/09/30 09:26:49;;;;;;;;;;;9.50;99.90;;;;;;4972852;28;19927;-78
2022/09/30 09:29:27;;;;;;;;;;;9.50;99.90;;;;;;4984318;28;19968;-78
2022/09/30 09:31:54;;;;;;;;;;;9.50;99.90;;;;;;4971337;28;19936;-78
2022/09/30 09:34:23;;;;;;;;;;;9.50;99.90;;;;;;4974482;28;20372;-78
2022/09/30 09:36:57;;;;;;;;;;;9.50;99.90;;;;;;4975483;28;20028;-78
2022/09/30 09:39:34;;;;;;;;;;;9.50;99.90;;;;;;4969548;28;20010;-78
2022/09/30 09:42:06;;;;;;;;;;;9.50;99.90;;;;;;4975706;28;19934;-78
2022/09/30 09:44:36;;;;;;;;;;;9.60;99.90;;;;;;4977970;28;19926;-78
2022/09/30 09:47:05;;;;;;;;;;;9.60;99.90;;;;;;4985230;28;19934;-80
2022/09/30 09:49:33;;;;;;;;;;;9.60;99.90;;;;;;4981995;28;19936;-78
2022/09/30 09:52:23;;;;;;;;;;;9.60;99.90;;;;;;4969325;28;19930;-78
2022/09/30 09:54:55;;;;;;;;;;;9.60;99.90;;;;;;4974544;28;20369;-78
2022/09/30 09:57:26;;;;;;;;;;;9.60;99.90;;;;;;4980933;28;20044;-78
2022/09/30 09:59:57;;;;;;;;;;;9.60;99.90;;;;;;4971964;28;19930;-78
2022/09/30 10:02:25;;;;;;;;;;;9.70;99.90;;;;;;4978267;28;19933;-78
2022/09/30 10:04:58;;;;;;;;;;;9.70;99.90;;;;;;4980106;28;19985;-78
2022/09/30 10:07:26;;;;;;;;;;;9.70;99.90;;;;;;4981418;28;19926;-78
2022/09/30 10:10:05;;;;;;;;;;;9.70;99.90;;;;;;4977194;28;19933;-78
2022/09/30 10:12:32;;;;;;;;;;;9.70;99.90;;;;;;4981123;28;19926;-78
2022/09/30 10:15:01;;;;;;;;;;;9.70;99.90;;;;;;4982901;28;19936;-78
2022/09/30 10:17:29;;;;;;;;;;;9.70;99.90;;;;;;4982338;28;20748;-78
2022/09/30 10:19:59;;;;;;;;;;;9.70;99.90;;;;;;4978661;28;20385;-78
2022/09/30 10:22:29;;;;;;;;;;;9.80;99.90;;;;;;4979388;28;19932;-78
2022/09/30 10:25:14;;;;;;;;;;;9.80;99.90;;;;;;4980617;28;20666;-78
2022/09/30 10:27:48;;;;;;;;;;;9.80;99.90;;;;;;4984774;28;19926;-78
2022/09/30 10:30:29;;;;;;;;;;;9.80;99.90;;;;;;4982700;28;19938;-78
2022/09/30 10:32:56;;;;;;;;;;;9.80;99.90;;;;;;4975478;28;20020;-78
2022/09/30 10:35:24;;;;;;;;;;;9.80;99.90;;;;;;4979241;28;20294;-78
2022/09/30 10:37:51;;;;;;;;;;;9.80;99.90;;;;;;4981754;28;19926;-79
2022/09/30 10:40:18;;;;;;;;;;;9.90;99.90;;;;;;4972981;28;19933;-77
2022/09/30 10:42:47;;;;;;;;;;;9.90;99.90;;;;;;4979613;28;20361;-76
2022/09/30 10:45:19;;;;;;;;;;;9.90;99.90;;;;;;4980355;28;20037;-78
2022/09/30 10:47:49;;;;;;;;;;;9.90;99.90;;;;;;4983617;28;19997;-76
2022/09/30 10:50:19;;;;;;;;;;;9.90;99.90;;;;;;4983289;28;19926;-78
2022/09/30 10:52:49;;;;;;;;;;;10.00;99.90;;;;;;4969509;28;20487;-76
2022/09/30 10:55:28;;;;;;;;;;;10.00;99.90;;;;;;4976664;28;19930;-76
2022/09/30 10:57:55;;;;;;;;;;;10.00;99.90;;;;;;4983794;28;20400;-76
2022/09/30 11:00:24;;;;;;;;;;;10.00;99.90;;;;;;4984692;28;19926;-76
2022/09/30 11:02:54;;;;;;;;;;;10.00;99.90;;;;;;4976392;28;19934;-75
2022/09/30 11:05:21;;;;;;;;;;;10.00;99.90;;;;;;4986598;28;19926;-76
2022/09/30 11:07:52;;;;;;;;;;;10.00;99.90;;;;;;4977144;28;19927;-78
2022/09/30 11:10:32;;;;;;;;;;;10.00;99.90;;;;;;4983948;28;20024;-76
2022/09/30 11:13:02;;;;;;;;;;;10.10;99.90;;;;;;4980220;28;19933;-76
2022/09/30 11:15:32;;;;;;;;;;;10.10;99.90;;;;;;4983251;28;19930;-75
2022/09/30 11:18:00;;;;;;;;;;;10.10;99.90;;;;;;4981169;28;19926;-76
2022/09/30 11:20:29;;;;;;;;;;;10.10;99.90;;;;;;4992992;28;20157;-77
2022/09/30 11:22:58;;;;;;;;;;;10.10;99.90;;;;;;4985938;28;19953;-77
2022/09/30 11:25:28;;;;;;;;;;;10.10;99.90;;;;;;4978185;28;20385;-77
2022/09/30 11:28:02;;;;;;;;;;;10.10;99.90;;;;;;4986426;28;19941;-77
2022/09/30 11:30:36;;;;;;;;;;;10.20;99.90;;;;;;4980584;28;19926;-76
2022/09/30 11:33:13;;;;;;;;;;;10.20;99.90;;;;;;4980436;28;20037;-78
2022/09/30 11:35:43;;;;;;;;;;;10.20;99.90;;;;;;4978392;28;20385;-78
2022/09/30 11:38:23;;;;;;;;;;;10.20;99.90;;;;;;4980013;28;19933;-78
2022/09/30 11:40:53;;;;;;;;;;;10.20;99.90;;;;;;4990736;28;19926;-79
2022/09/30 11:43:26;;;;;;;;;;;10.20;99.90;;;;;;4989576;28;19926;-79
2022/09/30 11:46:07;;;;;;;;;;;10.20;99.90;;;;;;4989945;28;19968;-78
2022/09/30 11:48:38;;;;;;;;;;;10.30;99.90;;;;;;4987269;28;19968;-78
2022/09/30 11:51:09;;;;;;;;;;;10.30;99.90;;;;;;4986855;28;19976;-78
2022/09/30 11:53:42;;;;;;;;;;;10.30;99.90;;;;;;4985465;28;19933;-78
2022/09/30 11:56:17;;;;;;;;;;;10.30;99.90;;;;;;4991614;28;19964;-79
2022/09/30 11:58:47;;;;;;;;;;;10.30;99.90;;;;;;4984099;28;19977;-78
2022/09/30 12:01:21;;;;;;;;;;;10.30;99.90;;;;;;4978238;28;20032;-77
2022/09/30 12:03:55;;;;;;;;;;;10.40;99.90;;;;;;4986582;28;20312;-78
2022/09/30 12:06:25;;;;;;;;;;;10.30;99.90;;;;;;4979876;28;19981;-79
2022/09/30 12:08:58;;;;;;;;;;;10.40;99.90;;;;;;4984111;28;20398;-78
2022/09/30 12:11:31;;;;;;;;;;;10.40;99.90;;;;;;4979342;28;20020;-78
2022/09/30 12:14:00;;;;;;;;;;;10.40;99.90;;;;;;4973778;28;20007;-79
2022/09/30 12:16:33;;;;;;;;;;;10.40;99.90;;;;;;4977485;28;19925;-79
2022/09/30 12:19:03;;;;;;;;;;;10.40;99.90;;;;;;4983631;28;19996;-78
2022/09/30 12:21:32;;;;;;;;;;;10.50;99.90;;;;;;4978997;28;19941;-78
2022/09/30 12:24:03;;;;;;;;;;;10.40;99.90;;;;;;4981953;28;19925;-78
2022/09/30 12:26:32;;;;;;;;;;;10.50;99.90;;;;;;4986009;28;19973;-78
2022/09/30 12:32:31;;;;;;;;;;;10.50;99.90;;;;;;4941949;28;19980;-78
2022/09/30 12:35:03;;;;;;;;;;;10.50;99.90;;;;;;4896747;29;19931;-78
2022/09/30 12:37:36;;;;;;;;;;;10.50;99.90;;;;;;4970115;28;19933;-78
2022/09/30 12:40:23;;;;;;;;;;;10.50;99.90;;;;;;4981531;28;19933;-78
2022/09/30 12:42:57;;;;;;;;;;;10.50;99.90;;;;;;4982314;28;19937;-79
2022/09/30 12:45:30;;;;;;;;;;;10.60;99.90;;;;;;4980865;28;19926;-79
2022/09/30 12:47:58;;;;;;;;;;;10.60;99.90;;;;;;4974208;28;19958;-79
2022/09/30 12:50:28;;;;;;;;;;;10.60;99.90;;;;;;4980235;28;19925;-78
2022/09/30 12:52:56;;;;;;;;;;;10.60;99.90;;;;;;4998149;28;19934;-79
2022/09/30 12:55:30;;;;;;;;;;;10.60;99.90;;;;;;4978645;28;20407;-79
2022/09/30 12:57:59;;;;;;;;;;;10.60;99.90;;;;;;4978870;28;20366;-79
2022/09/30 13:00:30;;;;;;;;;;;10.60;99.90;;;;;;4974890;28;19933;-79
2022/09/30 13:02:59;;;;;;;;;;;10.70;99.90;;;;;;4981377;28;20305;-78
2022/09/30 13:05:46;;;;;;;;;;;10.70;99.90;;;;;;4979958;28;20419;-78
2022/09/30 13:08:40;;;;;;;;;;;10.70;99.90;;;;;;4976190;28;19930;-79
2022/09/30 13:11:22;;;;;;;;;;;10.70;99.90;;;;;;4951251;28;19957;-79
2022/09/30 13:13:59;;;;;;;;;;;10.70;99.90;;;;;;4991917;28;19932;-79
2022/09/30 13:16:41;;;;;;;;;;;10.70;99.90;;;;;;4982636;28;19930;-79
2022/09/30 13:19:19;;;;;;;;;;;10.70;99.90;;;;;;4969916;28;19956;-78
2022/09/30 13:21:46;;;;;;;;;;;10.80;99.90;;;;;;4980626;28;19934;-78
2022/09/30 13:24:15;;;;;;;;;;;10.70;99.90;;;;;;4980710;28;19933;-79
2022/09/30 13:26:49;;;;;;;;;;;10.80;99.90;;;;;;4975487;28;20373;-78
2022/09/30 13:29:38;;;;;;;;;;;10.80;99.90;;;;;;4979385;28;19989;-79
2022/09/30 13:35:31;;;;;;;;;;;10.80;99.90;;;;;;4979522;28;20451;-77
2022/09/30 13:38:10;;;;;;;;;;;10.80;99.90;;;;;;4968063;28;19926;-76
2022/09/30 13:40:40;;;;;;;;;;;10.90;99.90;;;;;;4980837;28;20168;-77
2022/09/30 13:43:10;;;;;;;;;;;10.90;99.90;;;;;;4976154;28;20370;-77
2022/09/30 13:45:38;;;;;;;;;;;10.90;99.90;;;;;;4979808;28;19987;-77
2022/09/30 13:48:09;;;;;;;;;;;10.90;99.90;;;;;;4975794;28;20302;-77
2022/09/30 13:50:45;;;;;;;;;;;10.90;99.90;;;;;;4976375;28;20029;-76
2022/09/30 13:53:24;;;;;;;;;;;11.00;99.90;;;;;;4982512;28;20295;-76
2022/09/30 13:55:53;;;;;;;;;;;10.90;99.90;;;;;;4977004;28;19934;-77
2022/09/30 13:58:34;;;;;;;;;;;11.00;99.90;;;;;;4983813;28;19933;-76
2022/09/30 14:01:06;;;;;;;;;;;11.00;99.90;;;;;;4978474;28;19925;-77
2022/09/30 14:03:39;;;;;;;;;;;11.00;99.90;;;;;;4974691;28;20148;-77
2022/09/30 14:06:13;;;;;;;;;;;11.00;99.90;;;;;;4984711;28;20000;-77
2022/09/30 14:08:51;;;;;;;;;;;11.00;99.90;;;;;;4979626;28;19934;-76
2022/09/30 14:11:24;;;;;;;;;;;11.10;99.90;;;;;;4982768;28;20282;-77
2022/09/30 14:13:59;;;;;;;;;;;11.10;99.90;;;;;;4979270;28;19926;-76
2022/09/30 14:16:47;;;;;;;;;;;11.10;99.90;;;;;;4976710;28;19929;-77
2022/09/30 14:19:24;;;;;;;;;;;11.20;99.90;;;;;;4957702;28;19926;-76
2022/09/30 14:21:52;;;;;;;;;;;11.20;99.90;;;;;;4995075;28;19984;-77
2022/09/30 14:24:22;;;;;;;;;;;11.20;99.90;;;;;;4992139;28;20005;-76
2022/09/30 14:27:04;;;;;;;;;;;11.20;99.90;;;;;;4977959;28;19981;-76
2022/09/30 14:29:36;;;;;;;;;;;11.20;99.90;;;;;;4974033;28;20457;-77
2022/09/30 14:32:10;;;;;;;;;;;11.30;99.90;;;;;;4974215;28;19934;-77
2022/09/30 14:34:37;;;;;;;;;;;11.30;99.90;;;;;;4978402;28;19970;-77
2022/09/30 14:37:04;;;;;;;;;;;11.30;99.90;;;;;;4973009;28;19940;-78
2022/09/30 14:39:32;;;;;;;;;;;11.30;99.90;;;;;;4976869;28;20396;-77
2022/09/30 14:42:00;;;;;;;;;;;11.40;99.90;;;;;;4978473;28;19926;-77
2022/09/30 14:44:30;;;;;;;;;;;11.30;99.90;;;;;;4974785;28;19926;-76
2022/09/30 14:47:00;;;;;;;;;;;11.40;99.90;;;;;;4978084;28;19929;-77
2022/09/30 14:49:31;;;;;;;;;;;11.40;99.90;;;;;;4977863;28;19989;-77
2022/09/30 14:52:01;;;;;;;;;;;11.40;99.90;;;;;;4977698;28;19958;-77